Time;durP1;ratioP1;P1;durP2;ratioP2;P2;SDS_P1;SDS_P2;PMS_P1;PMS_P2;Temp;Humidity;BMP_temperature;BMP_pressure;BME280_temperature;BME280_humidity;BME280_pressure;Samples;Min_cycle;Max_cycle;Signal;HPM_P1;HPM_P2
2020/12/19 00:01:33;;;;;;;9.13;6.15;;;7.50;85.70;;;;;;4965497;28;20033;-86
2020/12/19 00:03:59;;;;;;;8.93;6.20;;;7.50;85.70;;;;;;4988316;28;20451;-85
2020/12/19 00:06:25;;;;;;;9.05;7.25;;;7.50;85.60;;;;;;4970992;28;20030;-85
2020/12/19 00:08:51;;;;;;;10.15;7.63;;;7.40;85.60;;;;;;4987486;28;20030;-84
2020/12/19 00:11:17;;;;;;;8.43;6.50;;;7.40;85.70;;;;;;4988997;28;20038;-86
2020/12/19 00:13:43;;;;;;;8.32;6.63;;;7.40;85.70;;;;;;4973542;28;20050;-86
2020/12/19 00:16:14;;;;;;;7.53;5.45;;;7.40;85.70;;;;;;4985260;28;20443;-86
2020/12/19 00:18:39;;;;;;;9.77;7.40;;;7.50;85.80;;;;;;4962900;28;20026;-84
2020/12/19 00:21:06;;;;;;;10.30;6.28;;;7.40;85.70;;;;;;4974377;28;20090;-84
2020/12/19 00:23:31;;;;;;;10.50;7.53;;;7.40;85.80;;;;;;4984441;28;20037;-83
2020/12/19 00:25:57;;;;;;;9.88;7.30;;;7.40;85.90;;;;;;4975710;28;20035;-84
2020/12/19 00:28:23;;;;;;;10.75;7.95;;;7.40;86.00;;;;;;4974696;28;20050;-83
2020/12/19 00:30:48;;;;;;;10.80;6.93;;;7.40;86.10;;;;;;4975444;28;20519;-84
2020/12/19 00:33:14;;;;;;;9.20;6.65;;;7.30;86.00;;;;;;4993844;28;20136;-84
2020/12/19 00:35:39;;;;;;;12.85;9.95;;;7.40;85.90;;;;;;4989569;28;20027;-85
2020/12/19 00:38:05;;;;;;;11.45;8.90;;;7.40;86.00;;;;;;4979230;28;20030;-86
2020/12/19 00:40:32;;;;;;;9.57;7.35;;;7.30;86.00;;;;;;4992843;28;20026;-83
2020/12/19 00:42:58;;;;;;;9.60;7.00;;;7.30;86.10;;;;;;4972610;28;20073;-84
2020/12/19 00:45:24;;;;;;;15.50;10.07;;;7.40;86.10;;;;;;4968658;28;20748;-83
2020/12/19 00:47:50;;;;;;;12.32;8.00;;;7.30;86.30;;;;;;4979974;28;20045;-84
2020/12/19 00:50:16;;;;;;;10.60;7.75;;;7.30;86.30;;;;;;4989170;28;20026;-84
2020/12/19 00:52:41;;;;;;;11.25;8.05;;;7.30;86.40;;;;;;4995986;28;20038;-83
2020/12/19 00:55:07;;;;;;;11.10;8.20;;;7.30;86.40;;;;;;4977923;28;20030;-84
2020/12/19 00:57:34;;;;;;;12.45;8.75;;;7.30;86.40;;;;;;4968294;28;20018;-83
2020/12/19 01:00:00;;;;;;;12.63;9.10;;;7.30;86.60;;;;;;5008331;28;20039;-85
2020/12/19 01:02:26;;;;;;;12.15;8.77;;;7.30;86.80;;;;;;5005012;28;20030;-84
2020/12/19 01:04:52;;;;;;;14.38;10.18;;;7.30;86.90;;;;;;4995391;28;20038;-84
2020/12/19 01:07:17;;;;;;;11.60;8.70;;;7.30;87.00;;;;;;4978091;28;20527;-83
2020/12/19 01:09:43;;;;;;;9.65;6.75;;;7.30;87.00;;;;;;5013400;28;20046;-84
2020/12/19 01:12:09;;;;;;;10.98;8.35;;;7.30;87.00;;;;;;5000189;28;20082;-84
2020/12/19 01:14:34;;;;;;;13.18;9.20;;;7.30;86.90;;;;;;4993387;28;20420;-84
2020/12/19 01:17:05;;;;;;;12.20;8.68;;;7.30;87.00;;;;;;4973640;28;20396;-84
2020/12/19 01:19:31;;;;;;;12.40;8.95;;;7.30;87.00;;;;;;4986298;28;20022;-84
2020/12/19 01:21:56;;;;;;;11.02;8.02;;;7.30;87.00;;;;;;4975434;28;20721;-84
2020/12/19 01:24:23;;;;;;;12.30;8.77;;;7.40;87.00;;;;;;4991939;28;20076;-84
2020/12/19 01:26:48;;;;;;;11.57;7.95;;;7.30;86.80;;;;;;4992115;28;20076;-85
2020/12/19 01:29:15;;;;;;;11.50;8.13;;;7.30;86.80;;;;;;4993375;28;20026;-85
2020/12/19 01:31:41;;;;;;;16.20;12.50;;;7.30;86.70;;;;;;4990051;28;20042;-85
2020/12/19 01:34:07;;;;;;;12.75;9.25;;;7.30;86.80;;;;;;4994525;28;20057;-85
2020/12/19 01:36:32;;;;;;;12.10;8.80;;;7.30;86.70;;;;;;4992967;28;20041;-85
2020/12/19 01:38:58;;;;;;;12.52;8.60;;;7.30;86.70;;;;;;4986655;28;20026;-86
2020/12/19 01:41:25;;;;;;;11.95;8.35;;;7.30;86.70;;;;;;4985090;28;20562;-85
2020/12/19 01:43:56;;;;;;;13.52;9.43;;;7.30;86.70;;;;;;4984351;28;20023;-86
2020/12/19 01:46:45;;;;;;;11.70;8.57;;;7.30;86.80;;;;;;4991396;28;20031;-85
2020/12/19 01:49:12;;;;;;;12.25;8.88;;;7.30;86.80;;;;;;4993708;28;20141;-85
2020/12/19 01:51:38;;;;;;;11.10;8.52;;;7.30;86.70;;;;;;4992358;28;20516;-84
2020/12/19 01:54:07;;;;;;;9.63;6.80;;;7.30;86.80;;;;;;4980992;28;20053;-84
2020/12/19 01:56:41;;;;;;;12.40;9.10;;;7.30;86.80;;;;;;4968477;28;20090;-83
2020/12/19 01:59:07;;;;;;;12.40;8.60;;;7.30;86.80;;;;;;4989824;28;20032;-83
2020/12/19 02:01:41;;;;;;;11.63;9.00;;;7.30;86.80;;;;;;4993205;28;20473;-84
2020/12/19 02:04:06;;;;;;;9.38;7.30;;;7.30;86.90;;;;;;4992627;28;20077;-83
2020/12/19 02:06:32;;;;;;;13.30;9.38;;;7.30;86.90;;;;;;4992621;28;20026;-84
2020/12/19 02:08:57;;;;;;;11.98;8.00;;;7.30;86.80;;;;;;4982708;28;20114;-84
2020/12/19 02:11:24;;;;;;;9.85;6.68;;;7.40;86.80;;;;;;4986367;28;20500;-83
2020/12/19 02:13:49;;;;;;;8.55;6.25;;;7.30;86.80;;;;;;4991499;28;20037;-83
2020/12/19 02:16:19;;;;;;;11.32;7.85;;;7.30;86.70;;;;;;4998427;28;20070;-85
2020/12/19 02:18:45;;;;;;;11.63;8.05;;;7.30;86.70;;;;;;4993403;28;20030;-86
2020/12/19 02:21:11;;;;;;;8.77;6.60;;;7.30;86.70;;;;;;4996149;28;20074;-85
2020/12/19 02:23:37;;;;;;;10.52;7.65;;;7.30;86.80;;;;;;4985953;28;20057;-84
2020/12/19 02:26:03;;;;;;;11.73;7.90;;;7.30;86.80;;;;;;5013837;28;20019;-84
2020/12/19 02:28:28;;;;;;;9.75;7.30;;;7.20;86.80;;;;;;5008923;28;20041;-85
2020/12/19 02:30:54;;;;;;;10.73;7.95;;;7.20;86.90;;;;;;5021898;28;20065;-85
2020/12/19 02:33:19;;;;;;;11.25;8.95;;;7.20;86.90;;;;;;4985502;28;20018;-85
2020/12/19 02:35:45;;;;;;;12.80;8.55;;;7.20;86.90;;;;;;5000378;28;20026;-85
2020/12/19 02:38:10;;;;;;;12.40;9.52;;;7.20;87.00;;;;;;4975622;28;20026;-84
2020/12/19 02:40:36;;;;;;;9.45;6.85;;;7.20;87.10;;;;;;5016918;28;20014;-85
2020/12/19 02:43:02;;;;;;;11.43;7.90;;;7.20;87.00;;;;;;5011749;28;20081;-85
2020/12/19 02:45:27;;;;;;;10.43;7.43;;;7.20;87.20;;;;;;4985339;28;20022;-84
2020/12/19 02:47:53;;;;;;;13.02;9.27;;;7.20;87.30;;;;;;4991076;28;20134;-84
2020/12/19 02:50:19;;;;;;;10.05;7.85;;;7.20;87.30;;;;;;4974071;28;20077;-84
2020/12/19 02:52:44;;;;;;;10.82;6.68;;;7.20;87.20;;;;;;4987160;28;20513;-85
2020/12/19 02:55:10;;;;;;;10.55;7.45;;;7.20;87.30;;;;;;4991211;28;20105;-84
2020/12/19 02:57:35;;;;;;;12.40;8.93;;;7.20;87.20;;;;;;4960847;28;20027;-84
2020/12/19 03:00:02;;;;;;;10.07;6.65;;;7.20;87.30;;;;;;4992324;28;20037;-84
2020/12/19 03:02:28;;;;;;;10.48;7.32;;;7.30;87.30;;;;;;4979301;28;20027;-85
2020/12/19 03:04:53;;;;;;;13.30;9.63;;;7.20;87.30;;;;;;4991864;28;20027;-85
2020/12/19 03:07:20;;;;;;;11.95;8.77;;;7.20;87.30;;;;;;4985857;28;20348;-85
2020/12/19 03:09:46;;;;;;;11.65;8.27;;;7.20;87.30;;;;;;4962876;28;20029;-84
2020/12/19 03:12:11;;;;;;;11.82;8.38;;;7.20;87.40;;;;;;4962359;28;20042;-85
2020/12/19 03:14:37;;;;;;;8.85;6.55;;;7.20;87.30;;;;;;4988573;28;20041;-84
2020/12/19 03:17:02;;;;;;;7.18;5.68;;;7.20;87.30;;;;;;4988196;28;20148;-85
2020/12/19 03:19:29;;;;;;;8.82;6.65;;;7.20;87.30;;;;;;4985453;28;20021;-84
2020/12/19 03:21:55;;;;;;;9.93;6.97;;;7.20;87.20;;;;;;5003906;28;20108;-84
2020/12/19 03:24:20;;;;;;;9.27;7.18;;;7.20;87.30;;;;;;4972387;28;20493;-84
2020/12/19 03:26:46;;;;;;;12.85;8.45;;;7.20;87.30;;;;;;4981366;28;20035;-84
2020/12/19 03:29:12;;;;;;;8.85;6.40;;;7.20;87.40;;;;;;4982058;28;20102;-83
2020/12/19 03:31:38;;;;;;;13.43;9.32;;;7.20;87.40;;;;;;4995900;28;20384;-84
2020/12/19 03:34:04;;;;;;;9.05;6.82;;;7.10;87.40;;;;;;4981897;28;20609;-85
2020/12/19 03:36:29;;;;;;;6.70;5.30;;;7.20;87.40;;;;;;4974703;28;20038;-85
2020/12/19 03:38:55;;;;;;;10.02;7.63;;;7.20;87.40;;;;;;4974929;28;20125;-85
2020/12/19 03:41:20;;;;;;;10.07;7.78;;;7.20;87.40;;;;;;4990250;28;20027;-84
2020/12/19 03:43:46;;;;;;;9.40;6.82;;;7.20;87.50;;;;;;4989714;28;20790;-84
2020/12/19 03:46:12;;;;;;;9.00;6.43;;;7.20;87.40;;;;;;4990277;28;20023;-84
2020/12/19 03:48:38;;;;;;;13.57;8.90;;;7.20;87.40;;;;;;4989641;28;20034;-84
2020/12/19 03:51:03;;;;;;;8.77;6.28;;;7.20;87.40;;;;;;4989686;28;20321;-85
2020/12/19 03:53:29;;;;;;;9.65;7.13;;;7.10;87.50;;;;;;4989235;28;20062;-84
2020/12/19 03:55:55;;;;;;;10.35;7.13;;;7.10;87.40;;;;;;4987715;28;20026;-85
2020/12/19 03:58:20;;;;;;;11.82;8.38;;;7.20;87.50;;;;;;4997697;28;20019;-83
2020/12/19 04:00:46;;;;;;;12.30;9.13;;;7.20;87.50;;;;;;4990827;28;20023;-85
2020/12/19 04:03:11;;;;;;;13.68;9.48;;;7.10;87.60;;;;;;4978274;28;20377;-84
2020/12/19 04:05:37;;;;;;;9.38;6.60;;;7.20;87.60;;;;;;4986993;28;20080;-84
2020/12/19 04:08:02;;;;;;;9.55;6.95;;;7.20;87.60;;;;;;5006140;28;20029;-85
2020/12/19 04:10:28;;;;;;;9.63;6.47;;;7.20;87.50;;;;;;4993225;28;20053;-85
2020/12/19 04:12:54;;;;;;;12.23;8.57;;;7.20;87.50;;;;;;5010959;28;20049;-84
2020/12/19 04:15:23;;;;;;;12.05;7.88;;;7.20;87.50;;;;;;4992216;28;20125;-84
2020/12/19 04:17:49;;;;;;;12.80;8.05;;;7.20;87.50;;;;;;4986435;28;20499;-84
2020/12/19 04:20:15;;;;;;;11.48;8.20;;;7.20;87.50;;;;;;4975634;28;20086;-85
2020/12/19 04:22:41;;;;;;;13.63;10.05;;;7.20;87.40;;;;;;5004108;28;20489;-85
2020/12/19 04:25:09;;;;;;;9.98;7.72;;;7.20;87.50;;;;;;4992451;28;20035;-85
2020/12/19 04:27:34;;;;;;;12.82;9.23;;;7.20;87.50;;;;;;5007592;28;20113;-85
2020/12/19 04:30:00;;;;;;;11.95;7.55;;;7.10;87.60;;;;;;4981806;28;20109;-84
2020/12/19 04:32:26;;;;;;;9.80;6.45;;;7.20;87.60;;;;;;4993347;28;20121;-84
2020/12/19 04:34:51;;;;;;;9.57;6.97;;;7.20;87.60;;;;;;4985744;28;20022;-84
2020/12/19 04:37:17;;;;;;;12.80;8.95;;;7.20;87.50;;;;;;4995296;28;20026;-85
2020/12/19 04:39:42;;;;;;;13.85;10.15;;;7.20;87.50;;;;;;4999200;28;20086;-85
2020/12/19 04:42:08;;;;;;;10.80;7.18;;;7.20;87.50;;;;;;4999039;28;20124;-84
2020/12/19 04:44:34;;;;;;;8.88;6.72;;;7.20;87.50;;;;;;4991440;28;20118;-84
2020/12/19 04:46:59;;;;;;;8.32;6.32;;;7.20;87.40;;;;;;4987155;28;20034;-83
2020/12/19 04:49:26;;;;;;;11.15;7.85;;;7.20;87.40;;;;;;4992829;28;20380;-83
2020/12/19 04:51:53;;;;;;;13.45;9.52;;;7.20;87.50;;;;;;4990273;28;20542;-83
2020/12/19 04:54:19;;;;;;;10.70;7.65;;;7.20;87.60;;;;;;4987605;28;20117;-84
2020/12/19 04:56:45;;;;;;;11.55;8.65;;;7.20;87.50;;;;;;4989753;28;20109;-84
2020/12/19 04:59:11;;;;;;;11.55;7.60;;;7.20;87.50;;;;;;5012583;28;20014;-84
2020/12/19 05:01:36;;;;;;;10.88;7.38;;;7.20;87.60;;;;;;4974932;28;20037;-84
2020/12/19 05:04:02;;;;;;;11.95;8.35;;;7.20;87.60;;;;;;5003855;28;20038;-84
2020/12/19 05:06:29;;;;;;;11.07;7.35;;;7.20;87.60;;;;;;4986351;28;20055;-84
2020/12/19 05:08:56;;;;;;;9.52;6.55;;;7.20;87.70;;;;;;4993067;28;20468;-84
2020/12/19 05:11:24;;;;;;;12.48;9.05;;;7.20;87.70;;;;;;4991718;28;20027;-84
2020/12/19 05:13:49;;;;;;;12.05;9.07;;;7.20;87.80;;;;;;4963026;28;20528;-85
2020/12/19 05:16:17;;;;;;;13.43;8.07;;;7.20;87.80;;;;;;4980913;28;20142;-85
2020/12/19 05:18:44;;;;;;;8.13;6.07;;;7.10;87.90;;;;;;4969739;28;20018;-84
2020/12/19 05:21:11;;;;;;;10.48;7.05;;;7.10;87.80;;;;;;4973062;28;20097;-85
2020/12/19 05:23:39;;;;;;;14.32;9.52;;;7.20;87.80;;;;;;4996384;28;20022;-85
2020/12/19 05:26:07;;;;;;;11.85;7.90;;;7.10;87.80;;;;;;5010113;28;20022;-83
2020/12/19 05:28:35;;;;;;;8.48;5.75;;;7.10;87.80;;;;;;5002476;28;20030;-85
2020/12/19 05:31:01;;;;;;;10.75;7.65;;;7.10;87.80;;;;;;5011153;28;20090;-84
2020/12/19 05:33:31;;;;;;;10.70;7.43;;;7.20;87.90;;;;;;5004838;28;20734;-85
2020/12/19 05:35:57;;;;;;;15.20;10.32;;;7.20;87.90;;;;;;4997195;28;20019;-84
2020/12/19 05:38:26;;;;;;;12.98;8.35;;;7.10;87.90;;;;;;5016977;28;20026;-85
2020/12/19 05:40:52;;;;;;;11.50;8.77;;;7.20;88.10;;;;;;4972525;28;20026;-85
2020/12/19 05:43:18;;;;;;;13.77;9.88;;;7.20;88.20;;;;;;4991177;28;20417;-85
2020/12/19 05:45:43;;;;;;;13.40;10.10;;;7.10;88.20;;;;;;4988231;28;20582;-85
2020/12/19 05:48:09;;;;;;;14.38;9.90;;;7.10;88.30;;;;;;4988816;28;20026;-85
2020/12/19 05:50:35;;;;;;;16.70;10.88;;;7.10;88.30;;;;;;4991531;28;20023;-85
2020/12/19 05:53:03;;;;;;;15.15;9.75;;;7.10;88.20;;;;;;4964553;28;20030;-84
2020/12/19 05:55:28;;;;;;;13.25;9.60;;;7.10;88.30;;;;;;4973732;28;20384;-86
2020/12/19 05:57:57;;;;;;;14.30;10.32;;;7.10;88.30;;;;;;4995329;28;20033;-85
2020/12/19 06:00:23;;;;;;;11.68;9.10;;;7.10;88.40;;;;;;4967715;28;20023;-85
2020/12/19 06:02:50;;;;;;;13.70;9.60;;;7.20;88.40;;;;;;4982287;28;20608;-84
2020/12/19 06:05:16;;;;;;;11.85;8.50;;;7.10;88.40;;;;;;4986504;28;20026;-84
2020/12/19 06:07:46;;;;;;;12.25;8.35;;;7.10;88.40;;;;;;4998301;28;20025;-84
2020/12/19 06:10:14;;;;;;;13.35;9.85;;;7.10;88.30;;;;;;5002413;28;20026;-84
2020/12/19 06:13:01;;;;;;;12.57;8.90;;;7.10;88.30;;;;;;4982287;28;20041;-84
2020/12/19 06:15:40;;;;;;;12.75;8.45;;;7.10;88.30;;;;;;4991029;28;20148;-84
2020/12/19 06:18:19;;;;;;;12.45;9.13;;;7.10;88.30;;;;;;4987193;28;20108;-84
2020/12/19 06:20:45;;;;;;;13.90;9.38;;;7.10;88.30;;;;;;4971894;28;20030;-84
2020/12/19 06:23:15;;;;;;;12.55;8.52;;;7.10;88.30;;;;;;4984388;28;20097;-84
2020/12/19 06:25:47;;;;;;;13.13;9.55;;;7.10;88.30;;;;;;4982733;28;20030;-85
2020/12/19 06:28:41;;;;;;;10.25;7.55;;;7.10;88.20;;;;;;4984625;28;20068;-84
2020/12/19 06:31:10;;;;;;;;;;;7.10;88.20;;;;;;4988293;28;20117;-85
2020/12/19 06:33:49;;;;;;;14.23;9.35;;;7.10;88.10;;;;;;4985928;28;19909;-85
2020/12/19 06:36:30;;;;;;;15.27;10.32;;;7.00;88.20;;;;;;4987920;28;20038;-85
2020/12/19 06:39:09;;;;;;;16.52;11.23;;;7.00;88.20;;;;;;4985499;28;20645;-85
2020/12/19 06:41:41;;;;;;;11.27;7.75;;;7.00;88.30;;;;;;4992351;28;20109;-84
2020/12/19 06:44:17;;;;;;;12.40;9.02;;;7.00;88.20;;;;;;4967614;28;20404;-83
2020/12/19 06:46:43;;;;;;;13.65;8.63;;;7.00;88.20;;;;;;4973196;28;20106;-85
2020/12/19 06:49:33;;;;;;;12.75;7.85;;;7.00;88.20;;;;;;4971215;28;20093;-84
2020/12/19 06:52:04;;;;;;;8.93;6.47;;;7.00;88.20;;;;;;4988942;28;20034;-84
2020/12/19 06:54:31;;;;;;;10.07;6.90;;;7.00;88.10;;;;;;4990650;28;20025;-84
2020/12/19 06:56:58;;;;;;;11.15;7.75;;;7.00;88.00;;;;;;4975230;28;20432;-84
2020/12/19 06:59:24;;;;;;;13.68;9.00;;;7.00;88.00;;;;;;4990668;28;20033;-84
2020/12/19 07:01:52;;;;;;;12.70;8.27;;;7.00;88.00;;;;;;4975422;28;20022;-84
2020/12/19 07:04:34;;;;;;;12.43;7.72;;;7.00;88.00;;;;;;4977774;28;20021;-86
2020/12/19 07:07:11;;;;;;;11.30;7.87;;;7.00;88.00;;;;;;4976552;28;20125;-85
2020/12/19 07:09:38;;;;;;;12.60;8.45;;;7.00;88.00;;;;;;4989947;28;20274;-85
2020/12/19 07:12:03;;;;;;;11.13;7.80;;;7.00;88.00;;;;;;4974265;28;20043;-85
2020/12/19 07:14:42;;;;;;;12.07;9.38;;;7.00;88.00;;;;;;4991229;28;20380;-84
2020/12/19 07:17:20;;;;;;;12.13;8.32;;;6.90;88.00;;;;;;4986666;28;20038;-84
2020/12/19 07:19:46;;;;;;;12.07;8.75;;;7.00;88.10;;;;;;4986681;28;20027;-85
2020/12/19 07:22:13;;;;;;;13.95;9.75;;;7.00;88.10;;;;;;4973617;28;20578;-85
2020/12/19 07:24:39;;;;;;;10.52;7.25;;;7.00;88.10;;;;;;4999601;28;20498;-85
2020/12/19 07:27:04;;;;;;;12.07;8.23;;;7.10;88.10;;;;;;4976573;28;20066;-84
2020/12/19 07:29:30;;;;;;;13.55;10.25;;;7.00;87.90;;;;;;4972962;28;20055;-84
2020/12/19 07:31:59;;;;;;;9.10;7.25;;;7.00;87.90;;;;;;4976951;28;20030;-87
2020/12/19 07:34:25;;;;;;;10.80;6.95;;;6.90;87.90;;;;;;4979244;28;20543;-89
2020/12/19 07:36:52;;;;;;;9.13;5.97;;;6.90;87.90;;;;;;5015266;28;20421;-87
2020/12/19 07:39:19;;;;;;;11.23;8.27;;;6.90;87.90;;;;;;4996808;28;20037;-87
2020/12/19 07:42:03;;;;;;;9.45;6.85;;;7.00;87.90;;;;;;4992224;28;20038;-88
2020/12/19 07:44:29;;;;;;;10.40;7.30;;;7.00;87.90;;;;;;4993720;28;20029;-89
2020/12/19 07:47:02;;;;;;;11.48;8.50;;;7.00;87.80;;;;;;4975926;28;20041;-85
2020/12/19 07:49:29;;;;;;;;;;;7.00;87.80;;;;;;4991927;28;20030;-86
2020/12/19 07:52:33;;;;;;;9.63;6.70;;;7.00;87.70;;;;;;4999460;28;20303;-83
2020/12/19 07:55:00;;;;;;;8.60;5.68;;;7.00;87.70;;;;;;4897786;29;20028;-84
2020/12/19 07:57:28;;;;;;;9.38;6.70;;;7.10;87.70;;;;;;4899416;29;20047;-84
2020/12/19 07:59:54;;;;;;;12.68;8.80;;;7.10;87.70;;;;;;4951024;28;20567;-84
2020/12/19 08:02:21;;;;;;;11.35;7.38;;;7.10;87.60;;;;;;4973605;28;20035;-86
2020/12/19 08:04:52;;;;;;;10.07;6.72;;;7.10;87.50;;;;;;4993994;28;20124;-85
2020/12/19 08:07:19;;;;;;;11.60;8.40;;;7.10;87.50;;;;;;4973195;28;20113;-86
2020/12/19 08:09:45;;;;;;;10.82;7.65;;;7.10;87.50;;;;;;4956291;28;20027;-86
2020/12/19 08:12:11;;;;;;;11.48;7.88;;;7.10;87.50;;;;;;4991693;28;20030;-85
2020/12/19 08:14:38;;;;;;;12.05;8.00;;;7.10;87.50;;;;;;4992122;28;20033;-84
2020/12/19 08:17:12;;;;;;;10.82;6.93;;;7.10;87.50;;;;;;4976961;28;20034;-86
2020/12/19 08:19:40;;;;;;;9.65;6.63;;;7.30;87.70;;;;;;4976642;28;20173;-84
2020/12/19 08:22:07;;;;;;;11.02;7.18;;;7.20;88.10;;;;;;4991853;28;20524;-85
2020/12/19 08:24:33;;;;;;;9.82;6.88;;;7.20;87.50;;;;;;4989199;28;20157;-85
2020/12/19 08:27:47;;;;;;;11.85;9.07;;;7.20;87.50;;;;;;4990736;28;20026;-86
2020/12/19 08:30:27;;;;;;;16.60;10.90;;;7.20;87.60;;;;;;4965192;28;20054;-85
2020/12/19 08:32:58;;;;;;;13.20;10.60;;;7.30;87.70;;;;;;4973785;28;20044;-86
2020/12/19 08:35:49;;;;;;;15.35;11.48;;;7.30;87.80;;;;;;4981471;28;20023;-86
2020/12/19 08:38:24;;;;;;;10.35;7.85;;;7.30;87.70;;;;;;4990785;28;20046;-86
2020/12/19 08:40:52;;;;;;;9.93;7.38;;;7.30;87.70;;;;;;4974760;28;20037;-84
2020/12/19 08:43:18;;;;;;;9.57;6.85;;;7.40;87.50;;;;;;4993055;28;20030;-85
2020/12/19 08:45:46;;;;;;;10.70;8.30;;;7.50;87.50;;;;;;4990765;28;20523;-87
2020/12/19 08:48:25;;;;;;;14.02;9.10;;;7.50;87.50;;;;;;4982590;28;20081;-84
2020/12/19 08:50:52;;;;;;;9.20;6.97;;;7.50;87.60;;;;;;4980284;28;20045;-88
2020/12/19 08:53:25;;;;;;;10.18;7.40;;;7.60;87.50;;;;;;4973334;28;20023;-87
2020/12/19 08:55:52;;;;;;;9.55;7.20;;;7.60;87.40;;;;;;4992590;28;20472;-87
2020/12/19 08:58:30;;;;;;;16.38;11.88;;;7.60;87.40;;;;;;4989313;28;20051;-87
2020/12/19 09:00:57;;;;;;;14.32;10.10;;;7.70;87.60;;;;;;4962427;28;20018;-87
2020/12/19 09:03:32;;;;;;;13.20;8.30;;;7.70;87.60;;;;;;4982711;28;20065;-86
2020/12/19 09:06:12;;;;;;;11.00;7.50;;;7.80;87.50;;;;;;4975683;28;20022;-87
2020/12/19 09:08:48;;;;;;;9.30;7.32;;;7.90;87.50;;;;;;4990725;28;20034;-87
2020/12/19 09:11:28;;;;;;;9.88;6.97;;;7.90;87.40;;;;;;5001328;28;20042;-86
2020/12/19 09:14:03;;;;;;;15.63;11.88;;;8.00;87.40;;;;;;4989989;28;20030;-86
2020/12/19 09:16:29;;;;;;;14.80;10.70;;;8.00;87.40;;;;;;4997882;28;20595;-85
2020/12/19 09:18:54;;;;;;;14.40;10.10;;;8.10;87.50;;;;;;4996046;28;20039;-83
2020/12/19 09:21:20;;;;;;;15.52;10.55;;;8.10;87.60;;;;;;4999000;28;20136;-84
2020/12/19 09:23:45;;;;;;;12.50;9.50;;;8.10;87.50;;;;;;5011074;28;20404;-84
2020/12/19 09:26:11;;;;;;;13.30;9.75;;;8.20;87.50;;;;;;5010169;28;20030;-84
2020/12/19 09:28:36;;;;;;;10.10;7.50;;;8.20;87.50;;;;;;5000533;28;20043;-83
2020/12/19 09:31:02;;;;;;;17.70;12.07;;;8.30;87.40;;;;;;5006061;28;20068;-84
2020/12/19 09:33:27;;;;;;;14.30;10.27;;;8.30;87.60;;;;;;4995106;28;20042;-85
2020/12/19 09:35:53;;;;;;;12.80;7.28;;;8.40;87.60;;;;;;5004434;28;20050;-84
2020/12/19 09:38:19;;;;;;;14.10;10.10;;;8.50;87.50;;;;;;5002457;28;20086;-86
2020/12/19 09:40:45;;;;;;;10.38;7.72;;;8.50;87.40;;;;;;5015096;28;20041;-86
2020/12/19 09:43:10;;;;;;;17.65;12.35;;;8.60;87.40;;;;;;5005394;28;20034;-84
2020/12/19 09:45:37;;;;;;;14.20;8.90;;;8.60;87.40;;;;;;4986359;28;20053;-84
2020/12/19 09:48:03;;;;;;;15.85;11.05;;;8.70;87.40;;;;;;4967838;28;20034;-85
2020/12/19 09:50:29;;;;;;;12.65;9.60;;;8.70;87.50;;;;;;4989639;28;20030;-85
2020/12/19 09:52:55;;;;;;;13.93;9.38;;;8.80;87.40;;;;;;4986718;28;20037;-84
2020/12/19 09:55:21;;;;;;;11.30;7.75;;;8.90;87.40;;;;;;4988415;28;20057;-85
2020/12/19 09:57:47;;;;;;;11.75;8.90;;;8.90;87.20;;;;;;4986622;28;20034;-83
2020/12/19 10:00:14;;;;;;;13.57;9.90;;;9.00;87.10;;;;;;4986401;28;20129;-85
2020/12/19 10:02:40;;;;;;;10.95;7.95;;;9.10;87.10;;;;;;4966328;28;20117;-85
2020/12/19 10:05:07;;;;;;;12.77;9.25;;;9.10;86.90;;;;;;4988490;28;20048;-86
2020/12/19 10:07:34;;;;;;;11.80;8.82;;;9.20;86.90;;;;;;4967742;28;20030;-85
2020/12/19 10:09:59;;;;;;;15.57;9.95;;;9.30;86.80;;;;;;4970540;28;20033;-87
2020/12/19 10:12:26;;;;;;;12.23;8.70;;;9.40;86.70;;;;;;4971747;28;20030;-86
2020/12/19 10:14:52;;;;;;;14.48;9.90;;;9.40;86.60;;;;;;4985168;28;20056;-87
2020/12/19 10:17:17;;;;;;;13.65;10.38;;;9.50;86.50;;;;;;4995375;28;20256;-86
2020/12/19 10:19:43;;;;;;;10.35;7.82;;;9.50;86.30;;;;;;4995363;28;20026;-86
2020/12/19 10:22:09;;;;;;;12.27;9.27;;;9.60;86.20;;;;;;4983424;28;20033;-86
2020/12/19 10:24:35;;;;;;;11.18;7.90;;;9.70;86.00;;;;;;4968180;28;20090;-87
2020/12/19 10:27:00;;;;;;;10.98;7.68;;;9.80;85.90;;;;;;4984564;28;20026;-87
2020/12/19 10:29:26;;;;;;;9.60;7.47;;;9.80;85.80;;;;;;4982304;28;20030;-87
2020/12/19 10:31:52;;;;;;;12.43;9.05;;;9.90;85.50;;;;;;4980676;28;20027;-85
2020/12/19 10:34:19;;;;;;;11.65;9.07;;;9.90;85.30;;;;;;4983755;28;20038;-86
2020/12/19 10:36:50;;;;;;;12.10;9.05;;;10.00;85.30;;;;;;4963813;28;20022;-88
2020/12/19 10:39:16;;;;;;;13.52;10.20;;;10.00;85.00;;;;;;4983268;28;20029;-86
2020/12/19 10:41:41;;;;;;;9.45;7.15;;;10.00;84.90;;;;;;4966578;28;20042;-84
2020/12/19 10:44:07;;;;;;;12.15;7.72;;;10.10;84.90;;;;;;4967836;28;20041;-84
2020/12/19 10:46:32;;;;;;;14.02;8.77;;;10.20;84.70;;;;;;4992332;28;20699;-85
2020/12/19 10:48:58;;;;;;;10.30;7.88;;;10.20;84.70;;;;;;4975531;28;20049;-86
2020/12/19 10:51:27;;;;;;;10.65;8.15;;;10.20;84.60;;;;;;4978090;28;20547;-85
2020/12/19 10:53:56;;;;;;;13.35;9.30;;;10.20;84.50;;;;;;4983917;28;20061;-94
2020/12/19 10:56:22;;;;;;;12.00;9.25;;;10.20;84.40;;;;;;4965472;28;20033;-94
2020/12/19 10:58:48;;;;;;;11.05;8.45;;;10.30;84.40;;;;;;4979920;28;20034;-88
2020/12/19 11:01:18;;;;;;;10.52;8.32;;;10.40;84.40;;;;;;4967278;28;20034;-92
2020/12/19 11:03:45;;;;;;;14.45;9.25;;;10.30;84.20;;;;;;4951661;28;20656;-92
2020/12/19 11:06:21;;;;;;;10.93;8.35;;;10.40;84.10;;;;;;4969285;28;20535;-93
2020/12/19 11:08:48;;;;;;;12.15;8.13;;;10.40;83.90;;;;;;4985880;28;20067;-92
2020/12/19 11:11:14;;;;;;;10.43;7.45;;;10.60;84.00;;;;;;4979453;28;20033;-94
2020/12/19 11:13:41;;;;;;;10.68;7.88;;;10.60;83.90;;;;;;4971916;28;20034;-92
2020/12/19 11:16:07;;;;;;;10.77;7.47;;;10.60;83.70;;;;;;4985486;28;20022;-91
2020/12/19 11:18:32;;;;;;;7.72;5.80;;;10.60;83.60;;;;;;4970969;28;20096;-92
2020/12/19 11:20:58;;;;;;;11.75;7.72;;;10.60;83.60;;;;;;4981619;28;20127;-92
2020/12/19 11:23:24;;;;;;;10.35;8.23;;;10.60;83.40;;;;;;4969476;28;20038;-91
2020/12/19 11:25:54;;;;;;;14.70;8.90;;;10.60;83.20;;;;;;4973216;28;20528;-89
2020/12/19 11:28:21;;;;;;;10.77;8.20;;;10.60;83.20;;;;;;4971426;28;20030;-90
2020/12/19 11:30:56;;;;;;;9.57;7.00;;;10.70;83.20;;;;;;4991979;28;20073;-89
2020/12/19 11:34:06;;;;;;;;;;;;;;;;;;;;;
2020/12/19 11:39:01;;;;;;;9.45;7.38;;;10.70;83.00;;;;;;4985671;23;20031;-92
2020/12/19 11:41:30;;;;;;;7.78;6.00;;;10.70;82.90;;;;;;4985625;28;20034;-96
2020/12/19 11:43:56;;;;;;;9.63;7.32;;;10.80;83.60;;;;;;4994241;28;20039;-90
2020/12/19 11:46:22;;;;;;;10.10;6.93;;;10.90;82.80;;;;;;4999231;28;20041;-91
2020/12/19 11:48:48;;;;;;;8.80;6.13;;;10.90;82.50;;;;;;4996439;28;20050;-89
2020/12/19 11:51:14;;;;;;;9.82;6.90;;;11.00;82.50;;;;;;5000380;28;20045;-92
2020/12/19 11:53:40;;;;;;;9.32;6.60;;;11.10;82.40;;;;;;4976221;28;20029;-90
2020/12/19 11:56:05;;;;;;;7.80;5.65;;;11.20;82.30;;;;;;5008674;28;20037;-91
2020/12/19 11:58:33;;;;;;;6.60;4.97;;;11.20;82.20;;;;;;5004790;28;20019;-91
2020/12/19 12:01:01;;;;;;;7.85;6.45;;;11.30;82.00;;;;;;4991455;28;20392;-89
2020/12/19 12:03:28;;;;;;;9.73;6.80;;;11.40;81.80;;;;;;4991478;28;21902;-91
2020/12/19 12:05:54;;;;;;;7.63;6.03;;;11.40;81.40;;;;;;4982030;28;20026;-89
2020/12/19 12:08:20;;;;;;;8.73;5.93;;;11.50;81.30;;;;;;4994823;28;20018;-89
2020/12/19 12:10:46;;;;;;;7.03;4.95;;;11.50;81.10;;;;;;5005530;28;20021;-89
2020/12/19 12:13:12;;;;;;;8.20;6.28;;;11.60;81.00;;;;;;5008108;28;20031;-89
2020/12/19 12:15:37;;;;;;;8.35;6.00;;;11.70;80.80;;;;;;5007654;28;20022;-89
2020/12/19 12:18:03;;;;;;;7.85;5.68;;;11.80;80.50;;;;;;5007350;28;20021;-90
2020/12/19 12:20:33;;;;;;;8.02;5.93;;;11.80;80.40;;;;;;4982815;28;20046;-90
2020/12/19 12:23:09;;;;;;;5.90;4.70;;;11.80;80.10;;;;;;4995383;28;20026;-94
2020/12/19 12:25:35;;;;;;;8.93;5.63;;;11.90;79.90;;;;;;4984634;28;20113;-90
2020/12/19 12:28:02;;;;;;;8.70;5.88;;;11.90;79.80;;;;;;4985328;28;20029;-90
2020/12/19 12:30:27;;;;;;;7.95;5.85;;;11.90;79.70;;;;;;4998211;28;20034;-91
2020/12/19 12:32:53;;;;;;;7.65;4.95;;;11.90;79.50;;;;;;4997014;28;20415;-91
2020/12/19 12:35:19;;;;;;;8.18;6.53;;;11.90;79.80;;;;;;5001666;28;20023;-91
2020/12/19 12:37:47;;;;;;;6.55;4.95;;;11.90;79.70;;;;;;4998429;28;20045;-91
2020/12/19 12:40:14;;;;;;;9.70;6.38;;;11.90;79.70;;;;;;4984516;28;20065;-88
2020/12/19 12:43:05;;;;;;;;;;;;;;;;;;;;;
2020/12/19 12:53:07;;;;;;;;;;;;;;;;;;;;;
2020/12/19 12:56:31;;;;;;;9.00;6.50;;;11.80;79.80;;;;;;4886434;29;20499;-95
2020/12/19 13:03:12;;;;;;;;;;;;;;;;;;;;;
2020/12/19 13:05:27;;;;;;;5.40;4.28;;;11.80;80.00;;;;;;4919150;29;19914;-92
2020/12/19 13:07:52;;;;;;;6.72;5.03;;;11.80;80.10;;;;;;4920758;29;20032;-88
2020/12/19 13:10:18;;;;;;;7.00;5.63;;;11.80;80.10;;;;;;4949892;28;20038;-89
2020/12/19 13:12:44;;;;;;;7.22;5.28;;;11.80;80.00;;;;;;4993465;28;20031;-89